Gourock, United Kingdom
Current Conditions -  °F | °C
As of 9:20 AM on Thursday 18 Dec 2014 (Local Time) from EGPF Reporting Station
Light Rain Light Rain  
Wind Chill: 44°   Ceiling: 800
Heat Index: 46°   Visibility: 2.5mi
Dew Point: 46°   Wind: 6mph
Humidity: 100%   Direction: 270°W
Pressure: 29.32"   Gusts: NA
Location:  55.96°N, 4.82°W
Report Text: EGPF 180920Z 27005KT 230V300 4000 -RA SCT004 BKN008 OVC011 08/08 Q0993 RERA
Loading
Personal Weather Stations






























Interactive Weather Map New forecast layout! Learn more

10-Day Weather Forecast

Advertisements
Track Severe Weather on mobile